Cassville, NY (13318)

5:57 AM EST on March 05, 2015 (GMT -0500)
Curtin Dairy | Change Station
CLOSE
Current Station
Personal Weather Station
Location: Cassville, NY
Elevation: 1240 ft
Nearby Weather Stations

Elev 1240 ft 42.92 °N, 75.23 °W | Updated 2 minutes ago

Overcast
Overcast
14.5 °F
Feels Like 2 °F
N
10.0
Wind Variable Wind from NW
Gusts 12.0 mph

Today
High -- | Low -- °F
--% Chance of Precip.
Yesterday
High -- | Low -- °F
Precip. -- in
6:30 AM 5:55 PM
Full, 100% visible
Pressure 30.14 in
Visibility 10.0 miles
Clouds Overcast 5000 ft
Windchill 2 °F
Dew Point 9 °F
Humidity 78%
Rainfall in
Snow Depth Not available.
UV 0 out of 12
Pollen .40 out of 12
Air Quality Not available.
Flu Activity Not available.
METAR KRME 050953Z AUTO 28013KT 10SM OVC050 M08/M14 A3013 RMK AO2 PRESRR SLP207 T10781144

More Conditions Fewer Conditions

Pressure 30.14 in
Visibility 10.0 miles
Clouds Overcast 5000 ft
Windchill 2 °F
Dew Point 9 °F
Humidity 78%
Rainfall in
Snow Depth Not available.
UV 0 out of 12
Pollen .40 out of 12
Air Quality Not available.
Flu Activity Not available.
METAR KRME 050953Z AUTO 28013KT 10SM OVC050 M08/M14 A3013 RMK AO2 PRESRR SLP207 T10781144

More Conditions Fewer Conditions

10-Day Weather Forecast

Almanac

Astronomy

Mar. 05, 2015 Rise Set
Actual Time
Civil Twilight
Nautical Twilight
Astronomical Twilight
Moon
Length of Visible Light
Length of Day
Tomorrow will be .
, % of the Moon is Illuminated

Today's Extremes

State Highs State Lows

Community

WunderPhotos

Upload Photos

1,802,714 photos uploaded!

WunderBlogs® & News

Nearby

Air Quality

  Air Quality AQ Index Pollutant
Not available.

Snow Depth

Station Depth Elevation

Earthquake Activity

City Distance Mag. Time & Date
Minimum magnitude displayed is 2.5.

Coastal Water Temperatures

Place Temperature

Nearby Weather Stations